Time,TemperatureF,DewpointF,PressureIn,WindDirection,WindDirectionDegrees,WindSpeedMPH,WindSpeedGustMPH,Humidity,HourlyPrecipIn,Conditions,Clouds,dailyrainin,SoftwareType,DateUTC
2013-03-03 00:11:00,4.3,-2.0,30.16,East,85,0.0,-999.0,76,-99.99,,,0.00,weatherlink.com 1.10,2013-03-03 06:11:00,
2013-03-03 00:26:00,3.9,-3.0,30.16,East,85,0.0,-999.0,74,-99.99,,,0.00,weatherlink.com 1.10,2013-03-03 06:26:00,
2013-03-03 00:41:00,3.5,-3.0,30.16,East,85,0.0,-999.0,75,-99.99,,,0.00,weatherlink.com 1.10,2013-03-03 06:41:00,
2013-03-03 01:11:00,2.6,-4.0,30.16,East,85,0.0,-999.0,74,-99.99,,,0.00,weatherlink.com 1.10,2013-03-03 07:11:00,
2013-03-03 01:26:00,2.2,-4.0,30.16,East,85,0.0,-999.0,74,-99.99,,,0.00,weatherlink.com 1.10,2013-03-03 07:26:00,
2013-03-03 01:42:00,1.8,-5.0,30.15,East,85,0.0,-999.0,73,-99.99,,,0.00,weatherlink.com 1.10,2013-03-03 07:42:00,
2013-03-03 01:57:00,1.7,-5.0,30.15,East,85,0.0,-999.0,72,-99.99,,,0.00,weatherlink.com 1.10,2013-03-03 07:57:00,
2013-03-03 02:12:00,1.1,-6.0,30.14,East,85,0.0,-999.0,71,-99.99,,,0.00,weatherlink.com 1.10,2013-03-03 08:12:00,
2013-03-03 02:27:00,0.7,-7.0,30.14,East,85,0.0,-999.0,71,-99.99,,,0.00,weatherlink.com 1.10,2013-03-03 08:27:00,
2013-03-03 02:42:00,0.3,-7.0,30.14,East,85,0.0,-999.0,71,-99.99,,,0.00,weatherlink.com 1.10,2013-03-03 08:42:00,
2013-03-03 02:57:00,-0.2,-8.0,30.14,East,85,0.0,-999.0,70,-99.99,,,0.00,weatherlink.com 1.10,2013-03-03 08:57:00,
2013-03-03 03:12:00,-0.4,-8.0,30.14,East,85,0.0,-999.0,71,-99.99,,,0.00,weatherlink.com 1.10,2013-03-03 09:12:00,
2013-03-03 03:27:00,-0.8,-8.0,30.15,East,85,0.0,-999.0,71,-99.99,,,0.00,weatherlink.com 1.10,2013-03-03 09:27:00,
2013-03-03 03:42:00,-1.2,-9.0,30.16,East,85,0.0,-999.0,71,-99.99,,,0.00,weatherlink.com 1.10,2013-03-03 09:42:00,
2013-03-03 03:57:00,-1.4,-9.0,30.15,East,85,0.0,-999.0,70,-99.99,,,0.00,weatherlink.com 1.10,2013-03-03 09:57:00,
2013-03-03 04:12:00,-1.6,-10.0,30.15,East,85,0.0,-999.0,69,-99.99,,,0.00,weatherlink.com 1.10,2013-03-03 10:12:00,
2013-03-03 04:27:00,-1.6,-10.0,30.16,East,85,0.0,-999.0,69,-99.99,,,0.00,weatherlink.com 1.10,2013-03-03 10:27:00,
2013-03-03 04:42:00,-1.6,-10.0,30.16,East,85,0.0,-999.0,67,-99.99,,,0.00,weatherlink.com 1.10,2013-03-03 10:42:00,
2013-03-03 04:57:00,-2.2,-10.0,30.16,East,85,0.0,-999.0,68,-99.99,,,0.00,weatherlink.com 1.10,2013-03-03 10:57:00,
2013-03-03 05:13:00,-1.8,-9.0,30.16,East,85,0.0,-999.0,70,-99.99,,,0.00,weatherlink.com 1.10,2013-03-03 11:13:00,
2013-03-03 05:28:00,-1.4,-9.0,30.16,East,85,0.0,-999.0,71,-99.99,,,0.00,weatherlink.com 1.10,2013-03-03 11:28:00,
2013-03-03 05:43:00,-0.8,-8.0,30.17,East,85,0.0,-999.0,71,-99.99,,,0.00,weatherlink.com 1.10,2013-03-03 11:43:00,
2013-03-03 05:58:00,-0.2,-7.0,30.16,East,85,0.0,-999.0,72,-99.99,,,0.00,weatherlink.com 1.10,2013-03-03 11:58:00,
2013-03-03 06:13:00,0.3,-6.0,30.16,East,85,1.0,-999.0,73,-99.99,,,0.00,weatherlink.com 1.10,2013-03-03 12:13:00,
2013-03-03 06:28:00,0.9,-6.0,30.15,East,85,3.0,-999.0,73,-99.99,,,0.00,weatherlink.com 1.10,2013-03-03 12:28:00,
2013-03-03 06:43:00,1.5,-5.0,30.15,East,85,2.0,-999.0,74,-99.99,,,0.00,weatherlink.com 1.10,2013-03-03 12:43:00,
2013-03-03 06:58:00,2.0,-5.0,30.15,East,85,2.0,-999.0,74,-99.99,,,0.00,weatherlink.com 1.10,2013-03-03 12:58:00,
2013-03-03 07:13:00,2.0,-5.0,30.15,East,85,1.0,-999.0,74,-99.99,,,0.00,weatherlink.com 1.10,2013-03-03 13:13:00,
2013-03-03 07:28:00,3.0,-3.0,30.15,East,85,2.0,-999.0,77,-99.99,,,0.00,weatherlink.com 1.10,2013-03-03 13:28:00,
2013-03-03 07:43:00,4.8,-1.0,30.15,East,89,3.0,-999.0,78,-99.99,,,0.00,weatherlink.com 1.10,2013-03-03 13:43:00,
2013-03-03 07:58:00,10.9,7.0,30.14,East,96,5.0,-999.0,85,-99.99,,,0.00,weatherlink.com 1.10,2013-03-03 13:58:00,
2013-03-03 08:13:00,14.4,8.0,30.13,ESE,102,1.0,-999.0,76,-99.99,,,0.00,weatherlink.com 1.10,2013-03-03 14:13:00,
2013-03-03 08:28:00,16.2,8.0,30.14,East,91,7.0,-999.0,69,-99.99,,,0.00,weatherlink.com 1.10,2013-03-03 14:28:00,
2013-03-03 08:44:00,16.9,5.0,30.13,East,99,3.0,-999.0,60,-99.99,,,0.00,weatherlink.com 1.10,2013-03-03 14:44:00,
2013-03-03 08:59:00,17.7,4.0,30.14,East,94,2.0,-999.0,54,-99.99,,,0.00,weatherlink.com 1.10,2013-03-03 14:59:00,
2013-03-03 09:14:00,18.6,0.0,30.13,East,85,7.0,-999.0,44,-99.99,,,0.00,weatherlink.com 1.10,2013-03-03 15:14:00,
2013-03-03 09:29:00,19.1,-4.0,30.13,East,82,6.0,-999.0,36,-99.99,,,0.00,weatherlink.com 1.10,2013-03-03 15:29:00,
2013-03-03 09:44:00,20.2,-4.0,30.13,ENE,63,3.0,-999.0,34,-99.99,,,0.00,weatherlink.com 1.10,2013-03-03 15:44:00,
2013-03-03 09:59:00,21.1,-5.0,30.12,East,100,7.0,-999.0,32,-99.99,,,0.00,weatherlink.com 1.10,2013-03-03 15:59:00,
2013-03-03 10:14:00,21.6,-6.0,30.12,East,98,3.0,-999.0,29,-99.99,,,0.00,weatherlink.com 1.10,2013-03-03 16:14:00,
2013-03-03 10:29:00,21.9,-7.0,30.12,East,100,9.0,-999.0,28,-99.99,,,0.00,weatherlink.com 1.10,2013-03-03 16:29:00,
2013-03-03 10:44:00,22.1,-7.0,30.12,East,96,9.0,-999.0,27,-99.99,,,0.00,weatherlink.com 1.10,2013-03-03 16:44:00,
2013-03-03 11:14:00,23.0,-10.0,30.12,East,95,9.0,-999.0,23,-99.99,,,0.00,weatherlink.com 1.10,2013-03-03 17:14:00,
2013-03-03 11:29:00,23.2,-10.0,30.12,ESE,122,5.0,-999.0,23,-99.99,,,0.00,weatherlink.com 1.10,2013-03-03 17:29:00,
2013-03-03 11:44:00,23.9,-7.0,30.12,East,94,11.0,-999.0,25,-99.99,,,0.00,weatherlink.com 1.10,2013-03-03 17:44:00,
2013-03-03 12:00:00,23.6,-9.0,30.11,East,96,10.0,-999.0,23,-99.99,,,0.00,weatherlink.com 1.10,2013-03-03 18:00:00,
2013-03-03 12:15:00,24.2,-8.0,30.10,East,100,10.0,-999.0,24,-99.99,,,0.00,weatherlink.com 1.10,2013-03-03 18:15:00,
2013-03-03 12:30:00,24.2,-7.0,30.10,ESE,104,5.0,-999.0,25,-99.99,,,0.00,weatherlink.com 1.10,2013-03-03 18:30:00,
2013-03-03 12:45:00,24.5,-6.0,30.09,East,93,8.0,-999.0,26,-99.99,,,0.00,weatherlink.com 1.10,2013-03-03 18:45:00,
2013-03-03 13:00:00,25.0,-4.0,30.09,East,92,3.0,-999.0,28,-99.99,,,0.00,weatherlink.com 1.10,2013-03-03 19:00:00,
2013-03-03 13:15:00,25.3,-4.0,30.08,East,82,7.0,-999.0,28,-99.99,,,0.00,weatherlink.com 1.10,2013-03-03 19:15:00,
2013-03-03 13:30:00,25.8,-1.0,30.09,East,82,9.0,-999.0,31,-99.99,,,0.00,weatherlink.com 1.10,2013-03-03 19:30:00,
2013-03-03 13:45:00,26.4,-1.0,30.08,ESE,110,5.0,-999.0,31,-99.99,,,0.00,weatherlink.com 1.10,2013-03-03 19:45:00,
2013-03-03 14:15:00,26.3,3.0,30.07,East,91,10.0,-999.0,37,-99.99,,,0.00,weatherlink.com 1.10,2013-03-03 20:15:00,
2013-03-03 14:30:00,27.0,3.0,30.07,ESE,110,10.0,-999.0,36,-99.99,,,0.00,weatherlink.com 1.10,2013-03-03 20:30:00,
2013-03-03 14:45:00,26.9,3.0,30.06,NE,55,6.0,-999.0,36,-99.99,,,0.00,weatherlink.com 1.10,2013-03-03 20:45:00,
2013-03-03 15:00:00,27.2,3.0,30.06,East,95,11.0,-999.0,35,-99.99,,,0.00,weatherlink.com 1.10,2013-03-03 21:00:00,
2013-03-03 15:16:00,27.2,3.0,30.06,SE,139,6.0,-999.0,35,-99.99,,,0.00,weatherlink.com 1.10,2013-03-03 21:16:00,
2013-03-03 15:31:00,27.3,5.0,30.05,NE,38,6.0,-999.0,39,-99.99,,,0.00,weatherlink.com 1.10,2013-03-03 21:31:00,
2013-03-03 15:46:00,27.0,7.0,30.06,ESE,104,3.0,-999.0,43,-99.99,,,0.00,weatherlink.com 1.10,2013-03-03 21:46:00,
2013-03-03 16:01:00,26.4,8.0,30.06,ENE,72,10.0,-999.0,46,-99.99,,,0.00,weatherlink.com 1.10,2013-03-03 22:01:00,
2013-03-03 16:16:00,26.0,9.0,30.06,ENE,78,9.0,-999.0,49,-99.99,,,0.00,weatherlink.com 1.10,2013-03-03 22:16:00,
2013-03-03 16:31:00,25.4,10.0,30.06,East,79,6.0,-999.0,52,-99.99,,,0.00,weatherlink.com 1.10,2013-03-03 22:31:00,
2013-03-03 16:46:00,24.5,11.0,30.06,East,87,10.0,-999.0,56,-99.99,,,0.00,weatherlink.com 1.10,2013-03-03 22:46:00,
2013-03-03 17:01:00,24.4,11.0,30.06,ENE,61,4.0,-999.0,58,-99.99,,,0.00,weatherlink.com 1.10,2013-03-03 23:01:00,
2013-03-03 17:16:00,23.8,12.0,30.06,ENE,72,5.0,-999.0,60,-99.99,,,0.00,weatherlink.com 1.10,2013-03-03 23:16:00,
2013-03-03 17:31:00,23.3,12.0,30.06,ENE,62,12.0,-999.0,62,-99.99,,,0.00,weatherlink.com 1.10,2013-03-03 23:31:00,
2013-03-03 17:46:00,22.2,12.0,30.06,ENE,60,15.0,-999.0,64,-99.99,,,0.00,weatherlink.com 1.10,2013-03-03 23:46:00,
2013-03-03 18:01:00,21.6,12.0,30.06,NE,52,4.0,-999.0,66,-99.99,,,0.00,weatherlink.com 1.10,2013-03-04 00:01:00,
2013-03-03 18:16:00,21.3,12.0,30.07,East,80,2.0,-999.0,66,-99.99,,,0.00,weatherlink.com 1.10,2013-03-04 00:16:00,
2013-03-03 18:32:00,21.0,11.0,30.07,East,83,2.0,-999.0,65,-99.99,,,0.00,weatherlink.com 1.10,2013-03-04 00:32:00,
2013-03-03 18:46:00,20.6,10.0,30.08,East,82,10.0,-999.0,63,-99.99,,,0.00,weatherlink.com 1.10,2013-03-04 00:46:00,
2013-03-03 19:02:00,20.0,9.0,30.08,ENE,63,5.0,-999.0,63,-99.99,,,0.00,weatherlink.com 1.10,2013-03-04 01:02:00,
2013-03-03 19:17:00,19.5,9.0,30.08,NE,50,3.0,-999.0,64,-99.99,,,0.00,weatherlink.com 1.10,2013-03-04 01:17:00,
2013-03-03 19:32:00,19.2,9.0,30.07,ENE,71,4.0,-999.0,64,-99.99,,,0.00,weatherlink.com 1.10,2013-03-04 01:32:00,
2013-03-03 19:47:00,19.1,9.0,30.07,ENE,64,4.0,-999.0,65,-99.99,,,0.00,weatherlink.com 1.10,2013-03-04 01:47:00,
2013-03-03 20:02:00,19.2,10.0,30.07,ENE,61,5.0,-999.0,66,-99.99,,,0.00,weatherlink.com 1.10,2013-03-04 02:02:00,
2013-03-03 20:17:00,19.4,10.0,30.06,NE,43,7.0,-999.0,67,-99.99,,,0.00,weatherlink.com 1.10,2013-03-04 02:17:00,
2013-03-03 20:32:00,19.2,10.0,30.06,ENE,60,3.0,-999.0,67,-99.99,,,0.00,weatherlink.com 1.10,2013-03-04 02:32:00,
2013-03-03 20:47:00,19.2,11.0,30.06,East,84,4.0,-999.0,69,-99.99,,,0.00,weatherlink.com 1.10,2013-03-04 02:47:00,
2013-03-03 21:01:00,19.5,12.0,30.06,ENE,73,5.0,-999.0,71,-99.99,,,0.00,weatherlink.com 1.10,2013-03-04 03:01:00,
2013-03-03 21:17:00,19.7,12.0,30.06,ENE,65,3.0,-999.0,72,-99.99,,,0.00,weatherlink.com 1.10,2013-03-04 03:17:00,
2013-03-03 21:32:00,19.5,12.0,30.05,ENE,66,0.0,-999.0,73,-99.99,,,0.00,weatherlink.com 1.10,2013-03-04 03:32:00,
2013-03-03 21:47:00,19.5,12.0,30.05,ENE,72,2.0,-999.0,74,-99.99,,,0.00,weatherlink.com 1.10,2013-03-04 03:47:00,
2013-03-03 22:02:00,19.4,13.0,30.05,East,79,1.0,-999.0,75,-99.99,,,0.00,weatherlink.com 1.10,2013-03-04 04:02:00,
2013-03-03 22:17:00,19.5,13.0,30.05,ENE,77,7.0,-999.0,76,-99.99,,,0.00,weatherlink.com 1.10,2013-03-04 04:17:00,
2013-03-03 22:33:00,19.9,14.0,30.04,ENE,77,6.0,-999.0,77,-99.99,,,0.00,weatherlink.com 1.10,2013-03-04 04:33:00,
2013-03-03 22:48:00,19.7,14.0,30.04,ESE,105,6.0,-999.0,78,-99.99,,,0.00,weatherlink.com 1.10,2013-03-04 04:48:00,
2013-03-03 23:03:00,19.7,14.0,30.04,East,83,2.0,-999.0,79,-99.99,,,0.00,weatherlink.com 1.10,2013-03-04 05:03:00,
2013-03-03 23:18:00,19.7,15.0,30.04,East,82,3.0,-999.0,80,-99.99,,,0.00,weatherlink.com 1.10,2013-03-04 05:18:00,
2013-03-03 23:33:00,19.9,15.0,30.04,East,84,2.0,-999.0,80,-99.99,,,0.00,weatherlink.com 1.10,2013-03-04 05:33:00,
2013-03-03 23:48:00,20.0,15.0,30.04,East,91,3.0,-999.0,80,-99.99,,,0.00,weatherlink.com 1.10,2013-03-04 05:48:00,